Time;durP1;ratioP1;P1;durP2;ratioP2;P2;SDS_P1;SDS_P2;PMS_P1;PMS_P2;Temp;Humidity;BMP_temperature;BMP_pressure;BME280_temperature;BME280_humidity;BME280_pressure;Samples;Min_cycle;Max_cycle;Signal;HPM_P1;HPM_P2
2022/08/21 00:00:25;;;;;;;18.08;8.18;;;;;;;17.85;100.00;94422.56;5021518;28;20095;-66
2022/08/21 00:02:56;;;;;;;10.50;6.20;;;;;;;17.70;100.00;94408.53;5001697;28;20478;-66
2022/08/21 00:05:25;;;;;;;12.70;7.07;;;;;;;17.75;100.00;94424.25;5021856;28;20041;-65
2022/08/21 00:07:52;;;;;;;14.98;6.90;;;;;;;17.55;100.00;94398.22;5021509;28;20140;-67
2022/08/21 00:10:19;;;;;;;12.98;7.60;;;;;;;17.70;100.00;94426.16;5019369;28;20047;-67
2022/08/21 00:12:47;;;;;;;15.65;7.50;;;;;;;17.55;100.00;94419.25;5000644;28;20133;-66
2022/08/21 00:15:18;;;;;;;20.73;7.70;;;;;;;17.56;100.00;94419.00;5019479;28;20054;-66
2022/08/21 00:17:45;;;;;;;17.50;8.23;;;;;;;17.64;100.00;94409.66;5013476;28;20046;-67
2022/08/21 00:20:14;;;;;;;12.65;7.30;;;;;;;17.65;100.00;94419.13;5014249;28;20096;-65
2022/08/21 00:22:41;;;;;;;27.83;7.95;;;;;;;17.64;100.00;94412.28;5019774;28;20044;-67
2022/08/21 00:25:09;;;;;;;16.65;9.35;;;;;;;17.70;100.00;94411.16;5016300;28;20037;-67
2022/08/21 00:27:37;;;;;;;15.60;7.28;;;;;;;17.72;100.00;94398.50;5013053;28;20417;-67
2022/08/21 00:30:06;;;;;;;16.23;7.35;;;;;;;17.73;100.00;94400.03;5015507;28;20041;-67
2022/08/21 00:32:33;;;;;;;11.27;7.25;;;;;;;17.80;100.00;94409.44;5014371;28;20045;-66
2022/08/21 00:35:00;;;;;;;12.38;7.78;;;;;;;17.85;100.00;94409.38;5013118;28;20089;-66
2022/08/21 00:37:27;;;;;;;14.98;8.32;;;;;;;17.90;100.00;94404.06;5013427;28;20052;-66
2022/08/21 00:40:01;;;;;;;18.73;7.25;;;;;;;17.89;100.00;94403.25;5016752;28;20870;-68
2022/08/21 00:42:30;;;;;;;11.75;7.60;;;;;;;17.89;100.00;94415.66;5011249;28;20082;-67
2022/08/21 00:44:57;;;;;;;12.55;7.82;;;;;;;17.90;100.00;94409.34;4981535;28;20111;-67
2022/08/21 00:47:24;;;;;;;13.90;8.50;;;;;;;17.91;100.00;94410.88;5017262;28;20490;-67
2022/08/21 00:49:51;;;;;;;12.10;7.95;;;;;;;17.92;100.00;94412.47;5019284;28;20053;-67
2022/08/21 00:52:31;;;;;;;18.00;9.07;;;;;;;17.99;100.00;94423.41;5018455;28;20083;-67
2022/08/21 00:55:00;;;;;;;18.60;9.55;;;;;;;18.00;100.00;94419.69;4953642;28;20560;-67
2022/08/21 00:57:37;;;;;;;29.75;9.57;;;;;;;18.02;100.00;94422.81;5001229;28;20052;-67
2022/08/21 01:00:09;;;;;;;16.90;7.88;;;;;;;17.91;100.00;94434.59;5017975;28;20037;-67
2022/08/21 01:02:36;;;;;;;11.90;8.10;;;;;;;17.90;100.00;94427.78;5000517;28;20049;-67
2022/08/21 01:05:04;;;;;;;14.23;8.85;;;;;;;17.91;100.00;94426.69;5017320;28;20053;-67
2022/08/21 01:07:31;;;;;;;17.63;8.82;;;;;;;17.89;100.00;94429.59;5017378;28;20431;-67
2022/08/21 01:09:58;;;;;;;16.23;9.10;;;;;;;17.95;100.00;94422.41;5017035;28;20049;-67
2022/08/21 01:12:26;;;;;;;13.52;8.30;;;;;;;17.95;100.00;94411.88;5017669;28;20049;-67
2022/08/21 01:14:53;;;;;;;13.48;7.90;;;;;;;17.92;100.00;94407.19;5015606;28;20057;-67
2022/08/21 01:17:21;;;;;;;19.33;8.77;;;;;;;17.91;100.00;94398.47;5017850;28;20037;-67
2022/08/21 01:19:48;;;;;;;12.77;8.02;;;;;;;17.91;100.00;94406.38;5015217;28;20407;-67
2022/08/21 01:22:15;;;;;;;17.08;8.40;;;;;;;17.83;100.00;94403.63;5014885;28;20041;-67
2022/08/21 01:24:42;;;;;;;20.05;8.65;;;;;;;17.78;100.00;94402.59;5016010;28;20508;-67
2022/08/21 01:27:08;;;;;;;16.85;8.93;;;;;;;17.58;100.00;94385.25;5016933;28;20041;-67
2022/08/21 01:29:45;;;;;;;16.17;8.73;;;;;;;17.63;100.00;94399.41;5017641;28;20049;-68
2022/08/21 01:32:18;;;;;;;14.80;8.95;;;;;;;17.52;100.00;94391.66;5016995;28;20374;-68
2022/08/21 01:34:47;;;;;;;17.17;9.27;;;;;;;17.59;100.00;94399.19;5010243;28;20486;-68
2022/08/21 01:37:15;;;;;;;13.68;8.32;;;;;;;17.62;100.00;94397.84;5000614;28;20052;-68
2022/08/21 01:39:43;;;;;;;17.73;9.57;;;;;;;17.63;100.00;94394.94;4997200;28;20083;-68
2022/08/21 01:42:10;;;;;;;13.93;9.13;;;;;;;17.65;100.00;94392.81;5016558;28;20033;-68
2022/08/21 01:44:37;;;;;;;16.67;9.55;;;;;;;17.77;100.00;94395.78;5019870;28;20037;-68
2022/08/21 01:47:10;;;;;;;13.57;9.70;;;;;;;17.77;100.00;94408.97;5017470;28;20057;-68
2022/08/21 01:49:37;;;;;;;19.02;9.80;;;;;;;17.85;100.00;94414.66;5017126;28;20045;-66
2022/08/21 01:52:05;;;;;;;18.10;9.18;;;;;;;17.89;100.00;94418.28;5018546;28;20050;-65
2022/08/21 01:54:35;;;;;;;18.40;9.13;;;;;;;17.92;100.00;94409.81;5022039;28;20511;-66
2022/08/21 01:57:04;;;;;;;16.23;9.32;;;;;;;17.94;100.00;94405.03;5003866;28;20049;-65
2022/08/21 01:59:32;;;;;;;15.18;9.32;;;;;;;17.96;100.00;94402.91;5019251;28;20042;-66
2022/08/21 02:01:59;;;;;;;17.00;9.90;;;;;;;18.00;100.00;94398.63;5022622;28;20045;-66
2022/08/21 02:04:26;;;;;;;16.15;8.95;;;;;;;17.99;100.00;94402.34;5021556;28;20045;-66
2022/08/21 02:06:53;;;;;;;14.98;8.40;;;;;;;17.91;100.00;94410.88;4983441;28;20054;-66
2022/08/21 02:09:21;;;;;;;15.68;8.93;;;;;;;17.87;100.00;94404.63;4995979;28;20053;-65
2022/08/21 02:11:51;;;;;;;16.40;7.88;;;;;;;17.92;100.00;94418.50;5004342;28;20037;-65
2022/08/21 02:14:18;;;;;;;19.23;8.80;;;;;;;17.86;100.00;94417.03;5021617;28;20084;-65
2022/08/21 02:16:59;;;;;;;16.65;8.82;;;;;;;17.89;100.00;94423.56;4999962;28;20688;-66
2022/08/21 02:19:37;;;;;;;15.07;7.95;;;;;;;17.84;100.00;94426.25;5021834;28;20045;-66
2022/08/21 02:22:10;;;;;;;16.42;8.55;;;;;;;17.74;100.00;94412.16;5019475;28;20034;-65
2022/08/21 02:24:37;;;;;;;17.33;8.98;;;;;;;17.80;100.00;94430.53;5003922;28;20045;-66
2022/08/21 02:27:23;;;;;;;21.27;9.85;;;;;;;17.75;100.00;94424.25;5013017;28;20052;-65
2022/08/21 02:29:53;;;;;;;18.55;9.18;;;;;;;17.52;100.00;94388.22;5018080;28;20073;-66
2022/08/21 02:32:21;;;;;;;14.32;9.15;;;;;;;17.73;100.00;94429.00;5021116;28;20920;-66
2022/08/21 02:34:48;;;;;;;18.40;9.65;;;;;;;17.74;100.00;94427.97;5015758;28;20037;-65
2022/08/21 02:37:16;;;;;;;21.10;9.52;;;;;;;17.70;100.00;94416.44;5022010;28;20546;-65
2022/08/21 02:39:42;;;;;;;28.00;10.27;;;;;;;17.57;100.00;94411.88;5016680;28;20048;-65
2022/08/21 02:42:09;;;;;;;20.85;10.73;;;;;;;17.62;100.00;94419.69;5019489;28;20057;-65
2022/08/21 02:44:36;;;;;;;19.40;10.65;;;;;;;17.58;100.00;94439.78;5021786;28;20124;-66
2022/08/21 02:47:04;;;;;;;21.02;12.27;;;;;;;17.56;100.00;94437.41;5014721;28;20446;-66
2022/08/21 02:49:30;;;;;;;20.27;12.38;;;;;;;17.60;100.00;94442.13;5004018;28;20049;-66
2022/08/21 02:51:57;;;;;;;21.60;11.70;;;;;;;17.64;100.00;94449.16;5021670;28;20052;-66
2022/08/21 02:54:24;;;;;;;23.20;11.77;;;;;;;17.62;100.00;94430.22;5021507;28;20041;-65
2022/08/21 02:56:51;;;;;;;18.45;11.65;;;;;;;17.59;100.00;94430.78;5021865;28;20042;-65
2022/08/21 02:59:18;;;;;;;30.90;12.70;;;;;;;17.61;100.00;94439.22;5002377;28;20048;-65
2022/08/21 03:01:45;;;;;;;22.40;11.43;;;;;;;17.66;100.00;94443.59;5020173;28;20041;-66
2022/08/21 03:04:12;;;;;;;22.92;11.85;;;;;;;17.66;100.00;94451.50;5021274;28;20042;-66
2022/08/21 03:06:39;;;;;;;25.85;13.43;;;;;;;17.74;100.00;94443.75;5022480;28;20038;-66
2022/08/21 03:09:06;;;;;;;24.95;11.90;;;;;;;17.80;100.00;94447.09;5018721;28;20427;-65
2022/08/21 03:11:32;;;;;;;21.67;12.48;;;;;;;17.80;100.00;94446.31;5013553;28;20037;-66
2022/08/21 03:13:59;;;;;;;18.92;12.45;;;;;;;17.81;100.00;94439.97;5013320;28;20050;-65
2022/08/21 03:16:26;;;;;;;32.63;14.98;;;;;;;17.84;100.00;94442.03;5018724;28;20470;-66
2022/08/21 03:18:57;;;;;;;25.38;12.82;;;;;;;17.73;100.00;94426.38;5015991;28;20053;-66
2022/08/21 03:21:24;;;;;;;22.88;13.27;;;;;;;17.85;100.00;94435.72;5015112;28;20042;-66
2022/08/21 03:23:51;;;;;;;23.98;12.20;;;;;;;17.85;100.00;94433.09;5018672;28;20049;-66
2022/08/21 03:26:18;;;;;;;27.48;14.13;;;;;;;17.87;100.00;94430.97;5015117;28;20042;-66
2022/08/21 03:28:45;;;;;;;25.98;13.27;;;;;;;17.87;100.00;94436.25;5017113;28;20270;-65
2022/08/21 03:31:12;;;;;;;21.70;12.85;;;;;;;17.90;100.00;94430.41;5016533;28;20304;-65
2022/08/21 03:33:39;;;;;;;21.33;12.13;;;;;;;17.92;100.00;94436.16;5019048;28;20725;-66
2022/08/21 03:36:07;;;;;;;19.58;11.88;;;;;;;17.92;100.00;94433.53;5016308;28;20046;-65
2022/08/21 03:38:36;;;;;;;27.67;11.43;;;;;;;17.93;100.00;94429.81;4990829;28;20522;-65
2022/08/21 03:41:04;;;;;;;25.60;12.32;;;;;;;17.95;100.00;94438.22;5013904;28;20042;-66
2022/08/21 03:43:32;;;;;;;18.35;11.10;;;;;;;17.95;100.00;94443.47;5018413;28;20109;-66
2022/08/21 03:46:03;;;;;;;20.17;10.93;;;;;;;17.93;100.00;94435.09;5021312;28;20518;-65
2022/08/21 03:48:34;;;;;;;21.60;10.52;;;;;;;17.89;100.00;94434.09;4975361;28;20076;-66
2022/08/21 03:51:01;;;;;;;20.52;10.40;;;;;;;17.90;100.00;94440.94;5018175;28;20052;-66
2022/08/21 03:53:30;;;;;;;16.58;10.70;;;;;;;17.89;100.00;94444.63;5022058;28;20057;-65
2022/08/21 03:55:56;;;;;;;27.60;10.88;;;;;;;17.88;100.00;94437.78;5003869;28;20049;-66
2022/08/21 03:58:26;;;;;;;22.02;10.40;;;;;;;17.90;100.00;94438.31;5016503;28;20069;-65
2022/08/21 04:00:56;;;;;;;19.33;9.55;;;;;;;17.87;100.00;94438.88;4917159;29;20035;-65
2022/08/21 04:03:24;;;;;;;13.00;7.88;;;;;;;17.87;100.00;94436.25;5021520;28;20060;-65
2022/08/21 04:05:51;;;;;;;12.25;8.38;;;;;;;17.75;100.00;94429.53;5018507;28;20351;-64
2022/08/21 04:08:18;;;;;;;15.75;8.18;;;;;;;17.80;100.00;94433.16;5002188;28;20050;-66
2022/08/21 04:10:48;;;;;;;15.95;8.10;;;;;;;17.74;100.00;94427.97;5021509;28;20068;-65
2022/08/21 04:13:15;;;;;;;14.50;8.93;;;;;;;17.71;100.00;94425.88;5014445;28;20051;-65
2022/08/21 04:15:42;;;;;;;15.07;7.97;;;;;;;17.66;100.00;94435.72;5017436;28;20050;-65
2022/08/21 04:18:09;;;;;;;18.42;9.40;;;;;;;17.63;100.00;94426.53;5018263;28;20538;-66
2022/08/21 04:20:37;;;;;;;12.27;8.50;;;;;;;17.64;100.00;94436.00;5003148;28;20033;-65
2022/08/21 04:23:04;;;;;;;18.83;8.68;;;;;;;17.62;100.00;94435.50;5017902;28;20059;-65
2022/08/21 04:25:31;;;;;;;12.60;7.63;;;;;;;17.55;100.00;94440.34;5016324;28;20049;-66
2022/08/21 04:27:58;;;;;;;14.25;8.40;;;;;;;17.50;100.00;94437.75;5000943;28;20103;-65
2022/08/21 04:30:25;;;;;;;17.52;9.00;;;;;;;17.53;100.00;94448.50;5015140;28;20049;-65
2022/08/21 04:32:55;;;;;;;15.32;8.15;;;;;;;17.46;100.00;94434.13;5014569;28;20503;-66
2022/08/21 04:35:24;;;;;;;17.33;9.00;;;;;;;17.50;100.00;94448.28;4917993;28;20048;-65
2022/08/21 04:37:51;;;;;;;15.10;8.63;;;;;;;17.44;100.00;94444.94;4922981;28;20061;-65
2022/08/21 04:40:20;;;;;;;22.77;10.73;;;;;;;17.46;100.00;94444.66;4920841;28;20109;-65
2022/08/21 04:42:59;;;;;;;26.40;10.75;;;;;;;17.50;100.00;94443.03;4918363;28;20036;-65
2022/08/21 04:45:28;;;;;;;16.30;10.35;;;;;;;17.49;100.00;94436.22;4915644;28;20051;-65
2022/08/21 04:47:58;;;;;;;22.85;9.30;;;;;;;17.33;100.00;94402.19;4913223;29;20048;-67
2022/08/21 04:50:30;;;;;;;15.70;9.75;;;;;;;17.49;100.00;94430.94;5019471;28;20080;-67
2022/08/21 04:53:13;;;;;;;17.00;9.98;;;;;;;17.58;100.00;94437.13;4998347;28;20057;-67
2022/08/21 04:55:43;;;;;;;15.70;9.88;;;;;;;17.64;100.00;94436.00;5000974;28;20064;-67
2022/08/21 04:58:12;;;;;;;18.23;9.68;;;;;;;17.64;100.00;94433.34;5020243;28;20136;-66
2022/08/21 05:00:40;;;;;;;18.98;9.07;;;;;;;17.64;100.00;94422.06;5000983;28;20049;-66
2022/08/21 05:03:09;;;;;;;13.63;8.98;;;;;;;17.73;100.00;94430.88;5016137;28;20046;-67
2022/08/21 05:05:36;;;;;;;23.45;10.07;;;;;;;17.69;100.00;94422.75;5018799;28;20455;-67
2022/08/21 05:08:04;;;;;;;15.68;9.32;;;;;;;17.81;100.00;94432.06;5018740;28;20053;-66
2022/08/21 05:10:32;;;;;;;10.30;7.28;;;;;;;17.86;100.00;94439.94;5018763;28;20045;-66
2022/08/21 05:13:00;;;;;;;18.08;10.15;;;;;;;17.95;100.00;94435.56;4999454;28;20111;-67
2022/08/21 05:15:27;;;;;;;14.75;8.30;;;;;;;18.06;100.00;94438.84;5017016;28;20041;-67
2022/08/21 05:17:54;;;;;;;12.93;7.63;;;;;;;18.15;100.00;94431.88;5017933;28;20041;-66
2022/08/21 05:20:27;;;;;;;14.65;6.88;;;;;;;18.14;100.00;94425.03;5000731;28;20446;-67
2022/08/21 05:22:54;;;;;;;14.25;6.90;;;;;;;18.29;100.00;94431.91;5019197;28;20045;-67
2022/08/21 05:25:21;;;;;;;15.32;6.78;;;;;;;18.45;100.00;94430.56;5015873;28;20041;-66
2022/08/21 05:27:49;;;;;;;19.27;7.65;;;;;;;18.52;100.00;94433.59;5019345;28;20501;-67
2022/08/21 05:30:18;;;;;;;10.05;6.80;;;;;;;18.71;100.00;94438.06;5019560;28;20065;-66
2022/08/21 05:32:47;;;;;;;15.48;7.65;;;;;;;18.85;100.00;94430.97;5019839;28;20477;-67
2022/08/21 05:35:14;;;;;;;12.35;6.60;;;;;;;19.00;100.00;94423.84;5020845;28;20057;-67
2022/08/21 05:37:41;;;;;;;9.38;6.70;;;;;;;19.16;100.00;94430.38;5003602;28;20037;-67
2022/08/21 05:40:09;;;;;;;12.05;6.00;;;;;;;19.34;100.00;94427.88;5021222;28;20049;-67
2022/08/21 05:42:50;;;;;;;12.38;6.85;;;;;;;19.42;100.00;94411.34;5019744;28;20040;-67
2022/08/21 05:45:26;;;;;;;11.25;6.75;;;;;;;19.59;100.00;94419.44;5023346;28;20073;-67
2022/08/21 05:48:22;;;;;;;11.02;6.15;;;;;;;19.78;100.00;94429.09;4958068;28;20053;-66
2022/08/21 05:50:50;;;;;;;16.52;5.82;;;;;;;19.93;100.00;94428.75;4937781;28;20037;-66
2022/08/21 05:53:18;;;;;;;10.85;4.07;;;;;;;19.95;100.00;94426.63;4999543;28;20475;-67
2022/08/21 05:55:46;;;;;;;9.15;4.13;;;;;;;19.99;100.00;94432.84;5000626;28;20505;-67
2022/08/21 05:58:15;;;;;;;10.43;3.58;;;;;;;19.93;100.00;94428.75;5021378;28;20449;-66
2022/08/21 06:00:43;;;;;;;8.45;3.58;;;;;;;19.90;100.00;94424.09;5019547;28;20057;-67
2022/08/21 06:03:19;;;;;;;9.35;4.07;;;;;;;19.93;100.00;94418.19;5022583;28;20436;-66
2022/08/21 06:05:46;;;;;;;13.73;4.38;;;;;;;20.05;100.00;94413.13;4988513;28;20076;-66
2022/08/21 06:08:15;;;;;;;9.18;3.60;;;;;;;20.26;100.00;94420.59;5021858;28;20033;-67
2022/08/21 06:10:43;;;;;;;10.68;3.88;;;;;;;20.37;100.00;94416.63;5019594;28;20041;-66
2022/08/21 06:13:11;;;;;;;11.75;3.65;;;;;;;20.57;100.00;94415.31;5021515;28;20049;-66
2022/08/21 06:15:38;;;;;;;11.10;4.35;;;;;;;20.73;100.00;94417.63;5021216;28;20048;-66
2022/08/21 06:18:05;;;;;;;8.75;4.30;;;;;;;20.83;100.00;94406.75;5021830;28;20045;-66
2022/08/21 06:20:33;;;;;;;8.80;3.40;;;;;;;20.97;100.00;94402.13;5021091;28;20072;-66
2022/08/21 06:23:01;;;;;;;14.43;3.47;;;;;;;21.19;100.00;94419.81;5022042;28;20044;-66
2022/08/21 06:25:29;;;;;;;9.25;3.50;;;;;;;21.24;100.00;94420.75;5020488;28;20557;-66
2022/08/21 06:28:09;;;;;;;9.88;3.95;;;;;;;21.26;100.00;94418.56;5021304;28;20455;-67
2022/08/21 06:30:39;;;;;;;7.57;3.25;;;;;;;21.27;100.00;94420.13;4965950;28;20053;-76
2022/08/21 06:33:06;;;;;;;15.52;3.78;;;;;;;21.26;100.00;94423.84;5020625;28;20390;-75
2022/08/21 06:35:34;;;;;;;8.05;3.42;;;;;;;21.17;100.00;94421.94;5016789;28;20071;-68
2022/08/21 06:38:02;;;;;;;10.43;2.70;;;;;;;21.25;100.00;94428.38;5002532;28;20052;-69
2022/08/21 06:40:30;;;;;;;14.30;3.72;;;;;;;21.34;100.00;94431.06;4997260;28;20064;-69
2022/08/21 06:43:09;;;;;;;11.88;3.55;;;;;;;21.41;100.00;94431.38;5019209;28;20048;-68
2022/08/21 06:45:41;;;;;;;5.15;3.30;;;;;;;21.52;100.00;94435.31;4983341;28;20124;-69
2022/08/21 06:48:08;;;;;;;8.23;4.18;;;;;;;21.48;100.00;94438.88;5023102;28;20041;-70
2022/08/21 06:50:36;;;;;;;10.82;3.67;;;;;;;21.56;100.00;94444.19;5003354;28;20041;-67
2022/08/21 06:53:06;;;;;;;13.45;3.95;;;;;;;21.55;100.00;94432.06;4922081;28;20531;-68
2022/08/21 06:55:34;;;;;;;6.72;3.28;;;;;;;21.81;100.00;94444.53;4986363;28;20419;-68
2022/08/21 06:58:02;;;;;;;10.25;3.78;;;;;;;21.90;100.00;94442.66;4994307;28;20045;-68
2022/08/21 07:00:29;;;;;;;7.60;3.53;;;;;;;22.02;100.00;94444.72;4985405;28;20048;-69
2022/08/21 07:02:56;;;;;;;8.27;4.38;;;;;;;22.15;100.00;94453.59;5019720;28;20471;-68
2022/08/21 07:05:27;;;;;;;10.85;3.92;;;;;;;22.36;100.00;94445.00;5021485;28;20060;-67
2022/08/21 07:07:54;;;;;;;9.38;3.42;;;;;;;22.44;100.00;94446.88;5003154;28;20506;-66
2022/08/21 07:10:21;;;;;;;7.55;4.00;;;;;;;22.28;100.00;94436.75;5023365;28;20056;-78
2022/08/21 07:12:52;;;;;;;8.50;3.78;;;;;;;22.42;100.00;94430.47;5018636;28;20420;-76
2022/08/21 07:15:30;;;;;;;12.13;4.25;;;;;;;22.45;100.00;94440.47;5020140;28;20063;-68
2022/08/21 07:17:59;;;;;;;7.15;3.83;;;;;;;22.29;100.00;94438.31;5019012;28;20045;-70
2022/08/21 07:20:28;;;;;;;10.40;4.07;;;;;;;22.52;100.00;94441.53;5021330;28;20068;-80
2022/08/21 07:22:59;;;;;;;8.20;3.72;;;;;;;22.76;100.00;94439.44;5015775;28;20052;-67
2022/08/21 07:25:26;;;;;;;13.30;3.40;;;;;;;22.78;100.00;94447.88;5017890;28;20038;-67
2022/08/21 07:27:53;;;;;;;7.72;3.65;;;;;;;22.63;100.00;94441.97;5016490;28;20049;-68
2022/08/21 07:30:23;;;;;;;7.38;3.50;;;;;;;22.81;100.00;94436.63;5018379;28;20056;-69
2022/08/21 07:32:51;;;;;;;10.63;3.92;;;;;;;22.50;100.00;94437.66;5015753;28;20064;-69
2022/08/21 07:35:21;;;;;;;10.70;4.28;;;;;;;22.66;100.00;94436.03;5013642;28;20053;-68
2022/08/21 07:37:49;;;;;;;8.48;4.35;;;;;;;22.71;100.00;94433.22;5013881;28;20046;-70
2022/08/21 07:40:16;;;;;;;7.07;3.42;;;;;;;23.02;100.00;94424.19;5015640;28;20057;-69
2022/08/21 07:42:46;;;;;;;8.38;3.88;;;;;;;23.29;100.00;94427.53;5012001;28;20705;-66
2022/08/21 07:45:15;;;;;;;9.32;4.70;;;;;;;23.64;100.00;94432.63;5011134;28;20053;-67
2022/08/21 07:47:42;;;;;;;10.95;4.78;;;;;;;23.81;96.46;94424.56;5015895;28;20042;-67
2022/08/21 07:50:11;;;;;;;10.80;4.43;;;;;;;24.08;98.22;94427.81;5015295;28;20034;-67
2022/08/21 07:52:40;;;;;;;11.00;4.60;;;;;;;24.40;95.35;94425.50;5017167;28;20069;-67
2022/08/21 07:55:08;;;;;;;11.55;3.55;;;;;;;24.53;94.45;94426.31;5012299;28;20045;-69
2022/08/21 07:57:35;;;;;;;8.07;4.03;;;;;;;24.66;95.05;94429.78;5016486;28;20048;-69
2022/08/21 08:00:08;;;;;;;8.85;4.75;;;;;;;24.54;92.26;94423.34;5019131;28;20046;-68
2022/08/21 08:02:38;;;;;;;9.68;4.65;;;;;;;24.71;95.86;94426.91;5018905;28;20519;-69
2022/08/21 08:05:09;;;;;;;7.70;4.20;;;;;;;24.86;94.57;94428.91;5020856;28;20049;-69
2022/08/21 08:07:35;;;;;;;11.80;5.22;;;;;;;25.02;91.57;94420.28;5018649;28;20456;-66
2022/08/21 08:10:05;;;;;;;11.68;4.28;;;;;;;25.02;88.44;94425.63;5002392;28;20059;-67
2022/08/21 08:12:32;;;;;;;12.63;5.18;;;;;;;24.99;91.59;94427.84;5018986;28;20052;-67
2022/08/21 08:15:00;;;;;;;12.43;5.03;;;;;;;24.96;92.55;94425.84;5020010;28;20053;-66
2022/08/21 08:17:28;;;;;;;10.63;5.03;;;;;;;24.87;89.92;94419.06;5021032;28;20041;-65
2022/08/21 08:19:55;;;;;;;7.45;4.75;;;;;;;25.13;90.12;94421.41;5017441;28;20597;-66
2022/08/21 08:22:26;;;;;;;9.55;4.38;;;;;;;25.23;89.55;94420.97;5012281;28;20435;-66
2022/08/21 08:24:53;;;;;;;9.30;6.03;;;;;;;25.32;90.34;94412.88;5023152;28;20038;-75
2022/08/21 08:27:20;;;;;;;14.88;4.68;;;;;;;25.71;88.84;94427.38;5011142;28;20438;-75
2022/08/21 08:29:50;;;;;;;8.02;4.57;;;;;;;25.99;87.25;94418.66;5019096;28;20064;-72
2022/08/21 08:32:18;;;;;;;6.13;4.03;;;;;;;25.89;83.14;94424.44;5023590;28;20540;-67
2022/08/21 08:34:46;;;;;;;8.70;4.28;;;;;;;26.18;82.15;94431.38;4998089;28;20396;-65
2022/08/21 08:37:13;;;;;;;16.35;4.90;;;;;;;26.30;82.82;94427.88;5015565;28;20045;-65
2022/08/21 08:39:40;;;;;;;12.13;5.18;;;;;;;26.16;81.28;94432.81;5018809;28;20542;-66
2022/08/21 08:42:22;;;;;;;17.05;5.25;;;;;;;26.08;80.01;94432.63;5018403;28;20396;-66
2022/08/21 08:45:06;;;;;;;8.50;4.20;;;;;;;25.98;80.57;94435.75;5012779;28;20049;-65
2022/08/21 08:47:37;;;;;;;11.27;4.97;;;;;;;26.02;81.25;94438.53;5011630;28;20041;-66
2022/08/21 08:50:21;;;;;;;9.85;5.20;;;;;;;26.28;80.24;94430.88;4917948;28;20055;-67
2022/08/21 08:53:00;;;;;;;12.02;4.15;;;;;;;26.44;79.30;94430.16;5014378;28;20152;-66
2022/08/21 08:55:35;;;;;;;9.07;4.43;;;;;;;26.64;79.32;94425.72;5015716;28;20143;-66
2022/08/21 08:58:03;;;;;;;8.52;4.18;;;;;;;26.83;79.42;94425.84;5015487;28;20057;-66
2022/08/21 09:00:31;;;;;;;12.43;4.30;;;;;;;26.91;78.63;94423.34;5018157;28;20054;-66
2022/08/21 09:03:00;;;;;;;7.30;3.85;;;;;;;26.97;76.75;94421.94;5021675;28;20056;-65
2022/08/21 09:05:36;;;;;;;9.07;3.95;;;;;;;26.64;75.05;94425.72;5022687;28;20073;-66
2022/08/21 09:08:24;;;;;;;12.02;4.40;;;;;;;26.40;78.32;94421.25;5007869;28;20049;-72
2022/08/21 09:11:11;;;;;;;13.80;5.38;;;;;;;26.24;78.48;94426.56;5023766;28;20037;-69
2022/08/21 09:13:55;;;;;;;9.95;6.05;;;;;;;26.07;76.23;94417.75;4922057;28;20094;-69
2022/08/21 09:16:41;;;;;;;;;;;;;;;26.32;77.73;94414.94;5005810;28;20049;-69
2022/08/21 09:19:41;;;;;;;10.60;4.55;;;;;;;26.73;76.43;94410.31;5021570;28;20037;-70
2022/08/21 09:22:18;;;;;;;10.68;4.60;;;;;;;27.00;74.07;94410.56;5023563;28;20045;-70
2022/08/21 09:24:51;;;;;;;13.98;5.07;;;;;;;27.21;73.94;94410.31;5020719;28;20615;-70
2022/08/21 09:27:20;;;;;;;8.70;4.40;;;;;;;27.09;73.93;94403.91;5019381;28;20037;-71
2022/08/21 09:29:50;;;;;;;9.07;4.45;;;;;;;27.21;72.12;94416.41;4995839;28;20046;-70
2022/08/21 09:32:24;;;;;;;9.43;4.13;;;;;;;27.46;70.96;94410.91;5006746;28;20049;-70
2022/08/21 09:35:15;;;;;;;6.78;4.10;;;;;;;27.59;70.39;94409.66;5016407;28;20050;-68
2022/08/21 09:37:47;;;;;;;11.43;4.75;;;;;;;27.53;68.76;94405.69;5004700;28;20052;-70
2022/08/21 09:40:32;;;;;;;10.35;4.80;;;;;;;27.40;69.75;94407.69;5018721;28;20049;-69
2022/08/21 09:43:03;;;;;;;9.50;4.90;;;;;;;27.42;72.65;94410.03;5023326;28;20123;-70
2022/08/21 09:45:32;;;;;;;6.88;4.55;;;;;;;26.89;71.53;94408.41;5020114;28;20048;-70
2022/08/21 09:48:21;;;;;;;12.10;4.22;;;;;;;26.40;73.06;94411.38;5024744;28;20061;-70
2022/08/21 09:50:53;;;;;;;10.80;4.97;;;;;;;26.68;71.33;94405.22;5022664;28;20167;-70
2022/08/21 09:53:20;;;;;;;9.35;4.50;;;;;;;27.12;75.64;94407.81;5017207;28;20091;-71
2022/08/21 09:58:51;;;;;;;11.27;6.33;;;;;;;27.26;71.03;94397.47;5019953;28;20037;-70
2022/08/21 10:01:22;;;;;;;8.73;5.10;;;;;;;27.40;70.29;94406.94;5021560;28;20046;-71
2022/08/21 10:04:02;;;;;;;6.18;5.13;;;;;;;27.20;70.54;94400.72;5006975;28;20526;-69
2022/08/21 10:06:29;;;;;;;8.30;4.40;;;;;;;27.38;69.53;94403.81;5017047;28;20366;-70
2022/08/21 10:09:05;;;;;;;14.50;4.72;;;;;;;27.10;69.71;94404.72;5007321;28;20077;-70
2022/08/21 10:11:34;;;;;;;6.22;4.43;;;;;;;27.15;72.49;94380.38;5017455;28;20042;-70
2022/08/21 10:14:24;;;;;;;11.40;5.13;;;;;;;26.88;70.68;94382.84;5018210;28;20459;-69
2022/08/21 10:17:07;;;;;;;8.48;5.20;;;;;;;26.57;70.76;94390.81;4920778;28;20066;-70
2022/08/21 10:19:52;;;;;;;10.27;5.25;;;;;;;26.21;72.80;94395.22;4919875;28;20052;-70
2022/08/21 10:22:21;;;;;;;9.43;5.18;;;;;;;25.69;74.72;94389.56;4919898;28;20098;-70
2022/08/21 10:25:03;;;;;;;8.07;5.80;;;;;;;25.90;75.77;94391.31;5016214;28;20503;-70
2022/08/21 10:27:59;;;;;;;9.38;5.63;;;;;;;25.86;75.55;94383.22;5021449;28;20427;-71
2022/08/21 10:30:54;;;;;;;13.23;6.30;;;;;;;25.63;76.60;94382.94;5018533;28;20407;-70
2022/08/21 10:33:24;;;;;;;9.07;5.45;;;;;;;25.45;77.11;94379.00;5019415;28;20041;-70
2022/08/21 10:36:04;;;;;;;9.25;5.82;;;;;;;25.00;79.40;94376.09;5020714;28;20431;-70
2022/08/21 10:38:49;;;;;;;13.70;5.82;;;;;;;25.14;78.97;94375.00;5016794;28;20459;-70
2022/08/21 10:42:05;;;;;;;11.02;6.22;;;;;;;25.24;79.18;94374.56;5018147;28;20061;-70
2022/08/21 10:45:08;;;;;;;8.48;5.78;;;;;;;25.36;79.69;94363.88;5016245;28;20491;-70
2022/08/21 10:47:59;;;;;;;10.57;5.55;;;;;;;25.37;79.32;94367.31;5016130;28;20626;-69
2022/08/21 10:50:34;;;;;;;10.38;5.75;;;;;;;25.49;78.21;94363.88;5021016;28;20045;-70
2022/08/21 10:53:09;;;;;;;11.05;5.97;;;;;;;25.38;78.40;94359.00;4999298;28;20054;-70
2022/08/21 10:55:44;;;;;;;12.50;5.38;;;;;;;24.89;78.37;94356.34;5021076;28;20546;-70
2022/08/21 10:58:18;;;;;;;11.02;5.70;;;;;;;25.02;79.28;94353.69;5018228;28;20447;-70
2022/08/21 11:00:49;;;;;;;11.32;5.65;;;;;;;24.94;78.53;94334.84;5020233;28;20045;-70
2022/08/21 11:03:37;;;;;;;10.48;5.55;;;;;;;25.45;78.46;94357.66;5019445;28;20121;-70
2022/08/21 11:06:14;;;;;;;10.73;5.25;;;;;;;25.82;78.09;94355.66;5019834;28;20095;-70
2022/08/21 11:08:50;;;;;;;14.32;6.47;;;;;;;26.09;74.96;94348.00;5017257;28;20037;-70
2022/08/21 11:11:42;;;;;;;15.98;6.32;;;;;;;26.19;73.82;94346.75;4956402;28;20073;-70
2022/08/21 11:14:48;;;;;;;10.68;5.80;;;;;;;26.47;73.17;94336.78;5015944;28;20069;-74
2022/08/21 11:17:24;;;;;;;14.75;7.00;;;;;;;26.79;75.23;94331.44;5027447;28;20097;-82
2022/08/21 11:20:24;;;;;;;12.07;6.03;;;;;;;27.41;74.51;94325.59;5020107;28;20052;-80
2022/08/21 11:23:01;;;;;;;14.00;6.35;;;;;;;28.19;67.67;94321.00;5006686;28;20057;-81
2022/08/21 11:25:37;;;;;;;13.05;7.32;;;;;;;28.50;65.56;94321.13;4990232;28;20533;-81
2022/08/21 11:28:04;;;;;;;16.15;7.43;;;;;;;29.27;62.97;94335.38;5003397;28;20050;-68
2022/08/21 11:31:12;;;;;;;7.18;5.35;;;;;;;29.79;63.51;94333.75;5018488;28;20045;-68
2022/08/21 11:33:48;;;;;;;10.57;5.80;;;;;;;30.25;57.35;94328.09;5017999;28;20045;-69
2022/08/21 11:36:45;;;;;;;16.33;6.45;;;;;;;30.54;57.14;94331.09;5018630;28;20515;-68
2022/08/21 11:39:18;;;;;;;10.77;6.05;;;;;;;30.99;56.38;94329.16;5017621;28;20120;-70
2022/08/21 11:42:23;;;;;;;11.27;6.32;;;;;;;31.11;55.67;94321.91;5019093;28;20049;-69
2022/08/21 11:45:26;;;;;;;12.43;6.05;;;;;;;31.44;54.73;94316.34;5015740;28;20064;-69